Time;durP1;ratioP1;P1;durP2;ratioP2;P2;SDS_P1;SDS_P2;PMS_P1;PMS_P2;Temp;Humidity;BMP_temperature;BMP_pressure;BME280_temperature;BME280_humidity;BME280_pressure;Samples;Min_cycle;Max_cycle;Signal;HPM_P1;HPM_P2
2023/04/07 00:00:40;;;;;;;6.32;4.35;;;;;;;3.03;100.00;92905.75;2077693;28;20065;-86
2023/04/07 00:01:44;;;;;;;4.72;4.20;;;;;;;3.02;100.00;92904.19;2066283;28;20045;-82
2023/04/07 00:02:45;;;;;;;7.05;4.60;;;;;;;3.03;100.00;92900.47;2073988;28;20049;-84
2023/04/07 00:03:47;;;;;;;6.25;4.25;;;;;;;3.03;100.00;92906.50;2071153;28;20022;-83
2023/04/07 00:04:48;;;;;;;4.93;4.25;;;;;;;3.02;100.00;92906.84;2066157;28;20082;-84
2023/04/07 00:05:49;;;;;;;5.07;4.55;;;;;;;3.01;100.00;92908.72;2065489;28;20053;-85
2023/04/07 00:06:54;;;;;;;6.28;4.25;;;;;;;3.06;100.00;92904.22;2058083;28;20562;-84
2023/04/07 00:07:56;;;;;;;5.28;4.50;;;;;;;3.01;100.00;92906.09;2065145;28;20375;-82
2023/04/07 00:08:57;;;;;;;5.28;4.45;;;;;;;2.99;100.00;92905.72;2074530;28;20030;-85
2023/04/07 00:09:58;;;;;;;5.32;4.50;;;;;;;3.00;100.00;92904.59;2066293;28;20038;-84
2023/04/07 00:10:59;;;;;;;5.05;4.00;;;;;;;2.99;100.00;92904.97;2058922;28;20027;-84
2023/04/07 00:12:01;;;;;;;5.22;4.72;;;;;;;2.96;100.00;92905.69;2058072;28;20438;-82
2023/04/07 00:13:03;;;;;;;4.82;4.28;;;;;;;2.98;100.00;92906.06;2065983;28;20010;-82
2023/04/07 00:14:04;;;;;;;5.00;4.45;;;;;;;2.97;100.00;92910.59;2065996;28;20387;-85
2023/04/07 00:15:06;;;;;;;5.53;4.47;;;;;;;2.96;100.00;92909.09;2058248;28;20054;-83
2023/04/07 00:16:07;;;;;;;5.50;4.53;;;;;;;2.97;100.00;92901.94;2057548;28;20023;-83
2023/04/07 00:17:09;;;;;;;4.95;4.40;;;;;;;2.95;100.00;92904.19;2057625;28;20033;-82
2023/04/07 00:18:10;;;;;;;6.88;4.78;;;;;;;2.99;100.00;92900.44;2043299;28;20027;-84
2023/04/07 00:19:11;;;;;;;6.20;4.72;;;;;;;2.97;100.00;92896.66;2050659;28;20023;-85
2023/04/07 00:20:12;;;;;;;5.28;4.78;;;;;;;2.98;100.00;92898.91;2053392;28;20065;-84
2023/04/07 00:21:13;;;;;;;5.22;4.63;;;;;;;2.97;100.00;92896.66;2058517;28;20578;-85
2023/04/07 00:22:14;;;;;;;7.60;5.18;;;;;;;2.94;100.00;92895.53;2057876;28;20034;-84
2023/04/07 00:23:15;;;;;;;6.25;4.90;;;;;;;2.94;100.00;92886.81;2050887;28;20502;-83
2023/04/07 00:24:16;;;;;;;5.40;4.85;;;;;;;2.96;100.00;92887.22;2056793;28;20023;-82
2023/04/07 00:25:18;;;;;;;6.70;4.65;;;;;;;2.94;100.00;92890.25;2050031;28;20387;-83
2023/04/07 00:26:20;;;;;;;7.25;4.80;;;;;;;2.97;100.00;92894.75;2058205;28;20050;-84
2023/04/07 00:27:22;;;;;;;5.07;4.47;;;;;;;2.92;100.00;92884.56;2053287;28;20038;-84
2023/04/07 00:28:23;;;;;;;8.15;4.78;;;;;;;2.95;100.00;92886.47;2065248;28;20402;-85
2023/04/07 00:29:26;;;;;;;5.57;4.40;;;;;;;2.96;100.00;92885.34;2074638;28;20421;-85
2023/04/07 00:30:27;;;;;;;7.70;4.57;;;;;;;2.95;100.00;92877.78;2058909;28;20100;-83
2023/04/07 00:31:29;;;;;;;5.57;4.40;;;;;;;2.94;100.00;92879.69;2066197;28;20034;-84
2023/04/07 00:32:30;;;;;;;8.30;4.30;;;;;;;2.97;100.00;92878.91;2074342;28;20021;-85
2023/04/07 00:33:31;;;;;;;6.38;4.38;;;;;;;2.97;100.00;92876.28;2066587;28;20046;-85
2023/04/07 00:34:32;;;;;;;4.97;4.43;;;;;;;3.00;100.00;92872.16;2058750;28;20030;-83
2023/04/07 00:35:33;;;;;;;6.90;4.18;;;;;;;2.97;100.00;92876.28;2065945;28;20026;-84
2023/04/07 00:36:34;;;;;;;6.70;4.43;;;;;;;3.00;100.00;92872.16;2054451;28;20063;-85
2023/04/07 00:37:35;;;;;;;4.15;3.75;;;;;;;2.97;100.00;92868.34;2058125;28;20022;-84
2023/04/07 00:38:36;;;;;;;5.65;4.60;;;;;;;2.95;100.00;92865.34;2057981;28;20113;-83
2023/04/07 00:39:37;;;;;;;5.80;4.38;;;;;;;2.97;100.00;92867.59;2066042;28;20023;-82
2023/04/07 00:40:39;;;;;;;5.00;4.07;;;;;;;2.95;100.00;92865.34;2058113;28;20031;-83
2023/04/07 00:41:40;;;;;;;6.85;4.30;;;;;;;2.96;100.00;92869.50;2058030;28;20373;-85
2023/04/07 00:42:43;;;;;;;5.57;4.57;;;;;;;2.95;100.00;92861.97;2068704;28;20072;-88
2023/04/07 00:43:44;;;;;;;6.30;4.18;;;;;;;2.98;100.00;92863.84;2068238;28;20462;-85
2023/04/07 00:44:47;;;;;;;5.15;4.28;;;;;;;2.96;100.00;92866.84;2071240;28;20570;-85
2023/04/07 00:45:48;;;;;;;5.03;4.18;;;;;;;2.95;100.00;92857.44;2056265;28;20031;-85
2023/04/07 00:46:49;;;;;;;5.82;3.45;;;;;;;2.95;100.00;92860.06;2061896;28;20113;-84
2023/04/07 00:47:50;;;;;;;4.93;3.95;;;;;;;2.89;100.00;92861.53;2067401;28;20052;-83
2023/04/07 00:48:51;;;;;;;4.75;4.03;;;;;;;2.92;100.00;92852.13;2065814;28;20030;-84
2023/04/07 00:49:53;;;;;;;4.28;3.70;;;;;;;2.94;100.00;92850.66;2061465;28;20037;-85
2023/04/07 00:50:54;;;;;;;4.85;4.00;;;;;;;2.92;100.00;92847.59;2049685;28;20583;-83
2023/04/07 00:51:56;;;;;;;7.53;3.80;;;;;;;2.90;100.00;92849.88;2056377;28;20023;-82
2023/04/07 00:53:01;;;;;;;4.13;3.60;;;;;;;2.91;100.00;92848.00;2054879;28;20027;-83
2023/04/07 00:54:03;;;;;;;4.63;3.83;;;;;;;2.91;100.00;92850.63;2057727;28;20031;-83
2023/04/07 00:55:05;;;;;;;6.22;3.80;;;;;;;2.92;100.00;92854.78;2057437;28;20118;-84
2023/04/07 00:56:08;;;;;;;4.07;3.67;;;;;;;2.96;100.00;92852.91;2042165;28;20038;-84
2023/04/07 00:57:09;;;;;;;6.25;3.80;;;;;;;2.93;100.00;92851.00;2057430;28;20019;-85
2023/04/07 00:58:11;;;;;;;4.72;3.60;;;;;;;2.93;100.00;92848.38;2057046;28;20166;-82
2023/04/07 00:59:12;;;;;;;3.80;3.50;;;;;;;2.90;100.00;92847.25;2050685;28;20030;-83
2023/04/07 01:00:14;;;;;;;4.18;3.30;;;;;;;2.87;100.00;92840.06;2060133;28;20026;-85
2023/04/07 01:01:22;;;;;;;4.70;3.20;;;;;;;2.85;100.00;92844.19;2059301;28;20030;-84
2023/04/07 01:02:37;;;;;;;4.15;3.75;;;;;;;2.87;100.00;92844.59;2062279;28;20034;-85
2023/04/07 01:04:03;;;;;;;3.90;3.38;;;;;;;2.87;100.00;92844.59;2059175;28;20212;-86
2023/04/07 01:05:24;;;;;;;4.00;3.20;;;;;;;2.84;100.00;92845.31;2055748;28;20103;-85
2023/04/07 01:06:32;;;;;;;3.17;2.88;;;;;;;2.84;100.00;92840.78;2057748;28;20102;-83
2023/04/07 01:07:51;;;;;;;4.10;3.13;;;;;;;2.86;100.00;92843.84;2058423;28;20022;-84
2023/04/07 01:09:15;;;;;;;3.83;3.35;;;;;;;2.84;100.00;92832.88;2060349;28;20050;-84
2023/04/07 01:10:26;;;;;;;4.18;3.25;;;;;;;2.85;100.00;92839.66;2060357;28;20031;-82
2023/04/07 01:12:00;;;;;;;4.15;2.95;;;;;;;2.78;100.00;92832.50;2058430;28;20026;-85
2023/04/07 01:13:24;;;;;;;4.28;3.03;;;;;;;2.74;100.00;92826.44;2054253;28;20073;-84
2023/04/07 01:14:31;;;;;;;6.78;3.50;;;;;;;2.75;100.00;92827.19;2060051;28;20530;-85
2023/04/07 01:15:35;;;;;;;4.63;3.20;;;;;;;2.76;100.00;92826.06;2072244;28;20037;-83
2023/04/07 01:16:47;;;;;;;6.25;3.25;;;;;;;2.69;100.00;92820.78;2064594;28;20113;-84
2023/04/07 01:17:55;;;;;;;3.97;3.20;;;;;;;2.63;100.00;92824.91;2059947;28;20073;-84
2023/04/07 01:19:08;;;;;;;5.32;3.35;;;;;;;2.62;100.00;92834.69;2056561;28;20033;-83
2023/04/07 01:20:15;;;;;;;4.32;3.35;;;;;;;2.66;100.00;92821.53;2064374;28;20037;-83
2023/04/07 01:21:18;;;;;;;3.70;3.08;;;;;;;2.63;100.00;92828.28;2068705;28;20077;-85
2023/04/07 01:22:33;;;;;;;3.40;3.03;;;;;;;2.64;100.00;92823.78;2071183;28;20034;-84
2023/04/07 01:23:48;;;;;;;7.35;3.22;;;;;;;2.59;100.00;92821.50;2054284;28;20031;-84
2023/04/07 01:25:19;;;;;;;4.22;3.42;;;;;;;2.63;100.00;92814.34;2050642;28;20058;-84
2023/04/07 01:26:28;;;;;;;6.93;3.53;;;;;;;2.68;100.00;92814.00;2074468;28;20026;-84
2023/04/07 01:27:37;;;;;;;3.92;3.20;;;;;;;2.62;100.00;92818.13;2072919;28;20069;-83
2023/04/07 01:29:04;;;;;;;4.05;3.65;;;;;;;2.61;100.00;92812.09;2064624;28;20030;-83
2023/04/07 01:30:11;;;;;;;5.18;3.58;;;;;;;2.66;100.00;92808.34;2048257;28;20063;-83
2023/04/07 01:31:15;;;;;;;7.18;3.47;;;;;;;2.63;100.00;92811.69;2042092;28;20032;-83
2023/04/07 01:32:22;;;;;;;4.75;4.00;;;;;;;2.67;100.00;92810.59;2043215;28;20031;-81
2023/04/07 01:33:26;;;;;;;6.07;4.20;;;;;;;2.66;100.00;92813.59;2049472;28;20066;-84
2023/04/07 01:34:30;;;;;;;5.03;4.13;;;;;;;2.64;100.00;92808.72;2056978;28;20038;-82
2023/04/07 01:35:35;;;;;;;7.85;4.20;;;;;;;2.58;100.00;92802.28;2057111;28;20038;-83
2023/04/07 01:36:39;;;;;;;6.93;4.43;;;;;;;2.60;100.00;92804.56;2049041;28;20031;-83
2023/04/07 01:37:44;;;;;;;4.63;4.13;;;;;;;2.58;100.00;92812.06;2049258;28;20599;-83
2023/04/07 01:38:48;;;;;;;5.07;4.35;;;;;;;2.57;100.00;92800.00;2058179;28;20019;-83
2023/04/07 01:39:52;;;;;;;5.30;4.55;;;;;;;2.58;100.00;92809.44;2058999;28;20417;-82
2023/04/07 01:40:55;;;;;;;6.47;4.85;;;;;;;2.66;100.00;92805.69;2049326;28;20035;-85
2023/04/07 01:42:01;;;;;;;5.63;4.47;;;;;;;2.70;100.00;92801.94;2048318;28;20058;-83
2023/04/07 01:43:03;;;;;;;7.78;4.07;;;;;;;2.74;100.00;92804.59;2040952;29;20034;-83
2023/04/07 01:44:07;;;;;;;5.50;4.57;;;;;;;2.74;100.00;92799.31;2048976;28;20031;-83
2023/04/07 01:45:10;;;;;;;5.97;4.32;;;;;;;2.72;100.00;92801.56;2057271;28;20027;-85
2023/04/07 01:46:14;;;;;;;7.35;4.43;;;;;;;2.65;100.00;92801.56;2062580;28;20022;-82
2023/04/07 01:47:17;;;;;;;5.95;3.95;;;;;;;2.64;100.00;92798.16;2056605;28;20098;-84
2023/04/07 01:48:19;;;;;;;6.03;4.07;;;;;;;2.66;100.00;92806.44;2058762;28;20031;-84
2023/04/07 01:49:22;;;;;;;6.93;4.28;;;;;;;2.71;100.00;92800.03;2064471;28;20376;-85
2023/04/07 01:50:25;;;;;;;5.82;4.38;;;;;;;2.73;100.00;92803.84;2073146;28;20128;-85
2023/04/07 01:51:30;;;;;;;7.75;4.80;;;;;;;2.72;100.00;92798.91;2070153;28;20116;-82
2023/04/07 01:52:34;;;;;;;5.20;4.22;;;;;;;2.69;100.00;92799.69;2056202;28;20038;-83
2023/04/07 01:53:37;;;;;;;6.15;5.20;;;;;;;2.70;100.00;92795.91;2065360;28;20057;-83
2023/04/07 01:54:40;;;;;;;6.28;4.45;;;;;;;2.70;100.00;92794.00;2060451;28;20026;-84
2023/04/07 01:56:14;;;;;;;8.50;5.00;;;;;;;2.71;100.00;92794.75;2061727;28;20026;-84
2023/04/07 01:57:40;;;;;;;6.65;4.70;;;;;;;2.73;100.00;92792.53;2063852;28;20146;-86
2023/04/07 01:58:42;;;;;;;6.30;4.65;;;;;;;2.75;100.00;92800.81;2056506;28;20520;-85
2023/04/07 01:59:43;;;;;;;7.82;5.43;;;;;;;2.75;100.00;92798.94;2057166;28;20109;-85
2023/04/07 02:01:14;;;;;;;6.10;4.60;;;;;;;2.76;100.00;92792.50;2069889;28;20481;-83
2023/04/07 02:02:22;;;;;;;7.00;5.10;;;;;;;2.75;100.00;92788.38;2059076;28;20052;-83
2023/04/07 02:03:31;;;;;;;7.55;5.82;;;;;;;2.72;100.00;92786.50;2042622;28;20028;-85
2023/04/07 02:04:59;;;;;;;6.50;5.25;;;;;;;2.77;100.00;92793.28;2042499;28;20096;-84
2023/04/07 02:06:11;;;;;;;6.03;5.10;;;;;;;2.76;100.00;92789.88;2066292;28;20029;-84
2023/04/07 02:07:41;;;;;;;6.30;5.28;;;;;;;2.80;100.00;92791.78;2064109;28;20022;-83
2023/04/07 02:08:55;;;;;;;8.60;5.10;;;;;;;2.77;100.00;92791.41;2050243;28;20117;-84
2023/04/07 02:10:01;;;;;;;6.75;5.05;;;;;;;2.76;100.00;92784.59;2043643;28;20032;-84
2023/04/07 02:11:13;;;;;;;7.68;5.00;;;;;;;2.77;100.00;92780.09;2042172;28;20125;-84
2023/04/07 02:12:16;;;;;;;7.63;5.43;;;;;;;2.82;100.00;92782.38;2050318;28;20038;-83
2023/04/07 02:13:26;;;;;;;7.95;5.60;;;;;;;2.79;100.00;92793.66;2058069;28;20057;-82
2023/04/07 02:14:34;;;;;;;7.90;5.60;;;;;;;2.81;100.00;92786.13;2044492;28;20139;-85
2023/04/07 02:15:55;;;;;;;7.70;5.57;;;;;;;2.85;100.00;92784.22;2052651;28;20043;-85
2023/04/07 02:17:06;;;;;;;6.95;5.38;;;;;;;2.88;100.00;92795.94;2062992;28;20030;-83
2023/04/07 02:20:19;;;;;;;8.05;5.38;;;;;;;2.82;100.00;92786.88;2120640;27;20621;-78
2023/04/07 02:21:29;;;;;;;9.82;5.20;;;;;;;2.81;100.00;92778.22;2103024;28;20090;-78
2023/04/07 02:22:37;;;;;;;8.48;5.97;;;;;;;2.83;100.00;92783.13;2096107;28;20039;-79
2023/04/07 02:24:26;;;;;;;10.40;5.45;;;;;;;2.84;100.00;92785.38;2102237;28;20032;-80
2023/04/07 02:26:16;;;;;;;7.72;5.10;;;;;;;2.88;100.00;92777.47;2075007;28;20071;-79
2023/04/07 02:43:28;;;;;;;8.23;4.90;;;;;;;3.01;100.00;92758.25;2068760;28;20038;-79
2023/04/07 02:46:06;;;;;;;5.10;4.32;;;;;;;2.99;100.00;92754.47;2061832;28;20038;-78
2023/04/07 03:11:05;;;;;;;9.20;5.03;;;;;;;2.56;100.00;92745.75;2021483;29;20036;-78
2023/04/07 03:21:30;;;;;;;8.82;5.85;;;;;;;2.48;100.00;92726.50;2032817;29;20056;-80
2023/04/07 03:22:46;;;;;;;6.40;5.25;;;;;;;2.50;100.00;92732.16;2020515;29;20049;-78
2023/04/07 03:23:50;;;;;;;;;;;;;;;2.80;100.00;92731.81;2026761;29;20044;-79
2023/04/07 03:27:11;;;;;;;7.05;4.60;;;;;;;2.64;100.00;92728.81;2022618;29;20108;-79
2023/04/07 03:31:29;;;;;;;8.68;4.80;;;;;;;2.59;100.00;92735.22;2028393;29;20047;-77
2023/04/07 03:33:07;;;;;;;9.77;5.90;;;;;;;2.53;100.00;92729.53;2017120;29;20413;-78
2023/04/07 03:34:22;;;;;;;6.28;5.00;;;;;;;2.53;100.00;92729.53;2017610;29;20041;-80
2023/04/07 03:36:08;;;;;;;6.22;4.95;;;;;;;2.52;100.00;92729.91;2028621;29;20143;-78
2023/04/07 03:37:49;;;;;;;6.93;5.40;;;;;;;2.50;100.00;92726.88;2043215;28;20593;-79
2023/04/07 03:39:56;;;;;;;8.02;5.63;;;;;;;2.47;100.00;92723.13;2033649;29;20707;-79
2023/04/07 03:41:18;;;;;;;7.43;6.18;;;;;;;2.46;100.00;92726.13;2025143;28;20165;-78
2023/04/07 03:42:40;;;;;;;7.82;5.68;;;;;;;2.44;100.00;92729.13;2046200;28;20062;-78
2023/04/07 03:44:29;;;;;;;7.13;5.32;;;;;;;2.38;100.00;92728.00;2050419;28;20038;-78
2023/04/07 03:46:12;;;;;;;6.65;5.43;;;;;;;2.31;100.00;92730.59;2053538;28;20086;-79
2023/04/07 03:47:59;;;;;;;7.18;5.65;;;;;;;2.30;100.00;92723.81;2049483;28;20489;-79
2023/04/07 03:54:48;;;;;;;;;;;;;;;;;;;;;
2023/04/07 04:02:27;;;;;;;;;;;;;;;;;;;;;
2023/04/07 04:09:29;;;;;;;5.35;4.75;;;;;;;1.76;100.00;92714.97;2023952;29;20433;-80
2023/04/07 04:10:32;;;;;;;6.78;4.85;;;;;;;1.80;100.00;92709.69;2049225;28;20121;-78
2023/04/07 04:11:39;;;;;;;7.72;4.90;;;;;;;1.80;100.00;92707.06;2047723;28;20054;-77
2023/04/07 04:16:01;;;;;;;6.57;4.95;;;;;;;1.81;100.00;92701.44;2024847;29;20044;-80
2023/04/07 04:19:01;;;;;;;8.30;4.85;;;;;;;1.76;100.00;92683.34;2078183;28;20461;-79
2023/04/07 04:20:26;;;;;;;7.00;5.10;;;;;;;1.72;100.00;92672.78;2079720;28;20033;-78
2023/04/07 04:26:24;;;;;;;5.18;3.92;;;;;;;1.59;100.00;92689.28;2038591;29;20050;-79
2023/04/07 04:37:07;;;;;;;6.35;4.45;;;;;;;1.41;100.00;92713.66;2100173;28;20043;-79
2023/04/07 04:38:11;;;;;;;6.47;3.92;;;;;;;1.46;100.00;92708.03;2068132;28;20089;-79
2023/04/07 04:39:16;;;;;;;7.13;5.25;;;;;;;1.46;100.00;92713.31;2079062;28;20064;-79
2023/04/07 04:40:43;;;;;;;;;;;;;;;;;;;;;
2023/04/07 04:42:05;;;;;;;9.43;4.45;;;;;;;1.45;100.00;92714.44;2092642;28;20051;-78
2023/04/07 04:43:08;;;;;;;5.07;4.55;;;;;;;1.42;100.00;92720.44;2091183;28;20471;-78
2023/04/07 04:44:18;;;;;;;7.40;4.80;;;;;;;1.45;100.00;92709.16;2071805;28;20079;-80
2023/04/07 04:45:30;;;;;;;7.32;4.95;;;;;;;1.44;100.00;92710.25;2080793;28;20041;-78
2023/04/07 04:46:32;;;;;;;5.75;5.15;;;;;;;1.44;100.00;92712.91;2092389;28;20033;-77
2023/04/07 04:47:33;;;;;;;8.13;6.15;;;;;;;1.49;100.00;92709.16;2092089;28;20033;-77
2023/04/07 04:48:35;;;;;;;11.18;7.93;;;;;;;1.50;100.00;92708.81;2092188;28;20051;-77
2023/04/07 04:49:37;;;;;;;10.77;8.30;;;;;;;1.50;100.00;92705.44;2083659;28;20037;-77
2023/04/07 04:50:41;;;;;;;8.50;7.70;;;;;;;1.42;100.00;92707.25;2076240;28;20053;-78
2023/04/07 04:51:44;;;;;;;10.63;8.25;;;;;;;1.39;100.00;92704.59;2097972;28;20032;-79
2023/04/07 04:52:45;;;;;;;9.95;7.65;;;;;;;1.38;100.00;92701.22;2101416;28;20078;-77
2023/04/07 04:53:46;;;;;;;11.05;7.35;;;;;;;1.39;100.00;92704.59;2101352;28;20048;-78
2023/04/07 04:54:47;;;;;;;8.35;7.18;;;;;;;1.39;100.00;92704.59;2099747;28;20150;-78
2023/04/07 04:55:50;;;;;;;7.20;6.50;;;;;;;1.42;100.00;92694.09;2092054;28;20070;-78
2023/04/07 04:56:52;;;;;;;8.48;6.80;;;;;;;1.47;100.00;92696.38;2084419;28;20029;-79
2023/04/07 04:57:53;;;;;;;6.07;5.47;;;;;;;1.46;100.00;92697.50;2084200;28;20392;-79
2023/04/07 04:58:54;;;;;;;6.85;5.70;;;;;;;1.47;100.00;92701.63;2075995;28;20029;-78
2023/04/07 04:59:55;;;;;;;8.55;5.47;;;;;;;1.49;100.00;92693.34;2083997;28;20055;-79
2023/04/07 05:00:59;;;;;;;5.43;4.85;;;;;;;1.51;100.00;92693.75;2092288;28;20029;-79
2023/04/07 05:02:02;;;;;;;5.97;5.00;;;;;;;1.54;100.00;92697.53;2084000;28;20057;-79
2023/04/07 05:03:07;;;;;;;5.65;4.45;;;;;;;1.52;100.00;92695.25;2072154;28;20030;-80
2023/04/07 05:04:11;;;;;;;5.70;4.78;;;;;;;1.50;100.00;92703.53;2069129;28;20776;-79
2023/04/07 05:05:19;;;;;;;5.85;4.97;;;;;;;1.50;100.00;92698.28;2079543;28;20098;-79
2023/04/07 05:06:27;;;;;;;4.55;4.07;;;;;;;1.56;100.00;92697.94;2081338;28;20022;-78
2023/04/07 05:07:31;;;;;;;4.53;4.13;;;;;;;1.46;100.00;92697.50;2077391;28;20088;-79
2023/04/07 05:08:42;;;;;;;6.28;4.82;;;;;;;1.45;100.00;92700.50;2073053;28;20505;-79
2023/04/07 05:09:52;;;;;;;5.50;4.90;;;;;;;1.40;100.00;92698.19;2074507;28;20037;-78
2023/04/07 05:11:31;;;;;;;5.60;4.82;;;;;;;1.47;100.00;92704.28;2076864;28;20037;-79
2023/04/07 05:12:49;;;;;;;4.28;3.85;;;;;;;1.48;100.00;92697.88;2073672;28;20535;-79
2023/04/07 05:14:00;;;;;;;5.07;4.22;;;;;;;1.57;100.00;92697.53;2079037;28;20040;-79
2023/04/07 05:15:15;;;;;;;;;;;;;;;;;;;;;
2023/04/07 05:16:25;;;;;;;5.68;3.60;;;;;;;1.52;100.00;92701.28;2077218;28;20034;-79
2023/04/07 05:30:51;;;;;;;4.95;2.85;;;;;;;1.69;100.00;92691.97;1989760;29;20453;-79
2023/04/07 05:35:39;;;;;;;3.22;2.90;;;;;;;1.83;100.00;92696.53;2037070;29;20135;-78
2023/04/07 05:36:57;;;;;;;5.10;2.60;;;;;;;1.80;100.00;92688.63;2036699;29;20129;-77
2023/04/07 05:38:04;;;;;;;3.65;3.25;;;;;;;1.75;100.00;92695.00;2038770;29;20043;-77
2023/04/07 05:39:15;;;;;;;4.63;3.50;;;;;;;1.75;100.00;92687.84;2046266;29;20121;-77
2023/04/07 05:40:25;;;;;;;3.42;3.10;;;;;;;1.74;100.00;92686.34;2060409;28;20041;-77
2023/04/07 05:43:46;;;;;;;3.72;3.42;;;;;;;1.76;100.00;92694.63;2060492;28;20034;-78
2023/04/07 05:44:52;;;;;;;5.03;3.40;;;;;;;1.76;100.00;92691.25;2076379;28;20045;-78
2023/04/07 05:51:51;;;;;;;3.25;2.92;;;;;;;1.82;100.00;92692.41;2057209;28;20109;-78
2023/04/07 05:56:49;;;;;;;;;;;;;;;;;;;;;
2023/04/07 05:59:00;;;;;;;;;;;;;;;;;;;;;
2023/04/07 06:03:46;;;;;;;;;;;;;;;;;;;;;
2023/04/07 06:05:15;;;;;;;5.88;3.38;;;;;;;2.07;100.00;92707.56;2058060;28;20050;-78
2023/04/07 06:09:49;;;;;;;;;;;;;;;;;;;;;
2023/04/07 06:23:01;;;;;;;3.47;3.17;;;;;;;2.90;100.00;92709.22;2068845;23;20132;-86
2023/04/07 06:24:06;;;;;;;3.63;2.95;;;;;;;2.93;100.00;92703.94;2071637;28;20034;-85
2023/04/07 06:25:08;;;;;;;3.70;3.35;;;;;;;2.98;100.00;92706.19;2065145;28;20030;-86
2023/04/07 06:26:11;;;;;;;3.67;3.30;;;;;;;2.99;100.00;92706.97;2059720;28;20471;-84
2023/04/07 06:27:15;;;;;;;3.70;3.40;;;;;;;3.10;100.00;92704.31;2064446;28;20449;-85
2023/04/07 06:28:17;;;;;;;3.78;3.10;;;;;;;3.12;100.00;92708.09;2056606;28;20459;-85
2023/04/07 06:29:18;;;;;;;5.35;3.63;;;;;;;3.25;100.00;92711.09;2056457;28;20543;-86
2023/04/07 06:30:19;;;;;;;5.45;4.30;;;;;;;3.13;100.00;92709.59;2055799;28;20050;-84
2023/04/07 06:31:20;;;;;;;4.85;3.60;;;;;;;3.14;100.00;92713.00;2051888;28;20035;-87
2023/04/07 06:32:22;;;;;;;5.63;4.05;;;;;;;3.21;100.00;92705.81;2055984;28;20564;-85
2023/04/07 06:33:24;;;;;;;5.38;4.07;;;;;;;3.30;100.00;92710.72;2055931;28;20328;-85
2023/04/07 06:34:26;;;;;;;4.10;3.60;;;;;;;3.33;100.00;92709.94;2062354;28;20466;-84
2023/04/07 06:35:28;;;;;;;4.55;3.97;;;;;;;3.23;100.00;92708.81;2068718;28;20522;-83
2023/04/07 06:36:31;;;;;;;5.47;4.45;;;;;;;3.33;100.00;92709.94;2059897;28;20029;-86
2023/04/07 06:37:33;;;;;;;6.75;5.60;;;;;;;3.26;100.00;92713.38;2061597;28;20479;-83
2023/04/07 06:38:35;;;;;;;7.93;6.35;;;;;;;3.25;100.00;92706.56;2049355;28;20482;-83
2023/04/07 06:39:37;;;;;;;9.65;8.43;;;;;;;3.20;100.00;92714.09;2052764;28;20030;-82
2023/04/07 06:40:38;;;;;;;8.90;7.10;;;;;;;3.21;100.00;92705.81;2059920;28;20070;-86
2023/04/07 06:41:41;;;;;;;8.35;6.57;;;;;;;3.24;100.00;92707.69;2055912;28;20071;-84
2023/04/07 06:42:44;;;;;;;6.97;5.50;;;;;;;3.23;100.00;92702.78;2062501;28;20026;-82
2023/04/07 06:43:47;;;;;;;5.72;4.97;;;;;;;3.25;100.00;92703.19;2068703;28;20138;-84
2023/04/07 06:44:50;;;;;;;5.85;5.25;;;;;;;3.26;100.00;92712.59;2058290;28;20050;-86
2023/04/07 06:45:51;;;;;;;7.07;5.88;;;;;;;3.26;100.00;92707.31;2067580;28;20042;-85
2023/04/07 06:46:54;;;;;;;8.63;6.05;;;;;;;3.21;100.00;92703.19;2074465;28;20026;-84
2023/04/07 06:47:56;;;;;;;6.93;6.28;;;;;;;3.20;100.00;92706.19;2074276;28;20224;-84
2023/04/07 06:48:58;;;;;;;6.40;5.90;;;;;;;3.27;100.00;92704.28;2057626;28;20022;-83
2023/04/07 06:50:00;;;;;;;6.65;5.32;;;;;;;3.28;100.00;92703.16;2064890;28;20026;-83
2023/04/07 06:51:05;;;;;;;5.60;4.85;;;;;;;3.33;100.00;92707.31;2057030;28;20126;-85
2023/04/07 06:52:07;;;;;;;8.73;7.75;;;;;;;3.41;100.00;92710.69;2060845;28;20042;-85
2023/04/07 06:53:09;;;;;;;8.00;6.22;;;;;;;3.43;100.00;92705.81;2070793;28;20026;-84
2023/04/07 06:54:14;;;;;;;10.77;6.30;;;;;;;3.44;100.00;92708.06;2062686;28;20129;-87
2023/04/07 06:55:17;;;;;;;7.10;6.50;;;;;;;3.46;100.00;92705.03;2055721;28;20029;-85
2023/04/07 06:56:20;;;;;;;6.70;6.00;;;;;;;3.47;100.00;92709.19;2054839;28;20035;-85
2023/04/07 06:57:21;;;;;;;7.50;6.63;;;;;;;3.53;100.00;92708.41;2062611;28;20065;-86
2023/04/07 06:58:25;;;;;;;7.05;6.38;;;;;;;3.56;100.00;92708.78;2056145;28;20113;-83
2023/04/07 06:59:28;;;;;;;8.68;7.78;;;;;;;3.61;100.00;92705.75;2060232;28;20270;-85
2023/04/07 07:00:30;;;;;;;10.82;9.73;;;;;;;3.65;100.00;92706.50;2063119;28;20033;-86
2023/04/07 07:01:34;;;;;;;14.07;12.57;;;;;;;3.69;100.00;92707.25;2054213;28;20213;-86
2023/04/07 07:02:36;;;;;;;14.02;12.52;;;;;;;3.75;100.00;92711.75;2052807;28;20693;-87
2023/04/07 07:03:37;;;;;;;13.32;12.13;;;;;;;3.78;100.00;92704.97;2058134;28;20085;-83
2023/04/07 07:04:38;;;;;;;14.25;12.77;;;;;;;3.88;100.00;92700.78;2046167;28;20034;-86
2023/04/07 07:05:40;;;;;;;11.95;10.75;;;;;;;3.92;100.00;92698.88;2066491;28;20025;-86
2023/04/07 07:06:41;;;;;;;10.95;9.93;;;;;;;4.01;100.00;92707.16;2067624;28;20544;-85
2023/04/07 07:07:43;;;;;;;12.23;9.15;;;;;;;4.10;100.00;92688.97;2063605;28;20482;-83
2023/04/07 07:08:44;;;;;;;9.98;9.00;;;;;;;4.13;100.00;92701.44;2066674;28;20355;-83
2023/04/07 07:09:45;;;;;;;14.98;9.02;;;;;;;4.10;100.00;92704.84;2072267;28;20014;-83
2023/04/07 07:10:47;;;;;;;10.05;9.05;;;;;;;4.31;100.00;92703.25;2070983;28;20010;-86
2023/04/07 07:11:49;;;;;;;8.68;7.78;;;;;;;4.42;100.00;92696.75;2052381;28;20023;-85
2023/04/07 07:12:50;;;;;;;9.55;8.65;;;;;;;4.54;100.00;92704.25;2057482;28;20035;-84
2023/04/07 07:13:51;;;;;;;9.48;8.57;;;;;;;4.58;100.00;92703.47;2067903;28;20030;-83
2023/04/07 07:14:52;;;;;;;7.90;7.05;;;;;;;4.58;100.00;92703.47;2067578;28;20022;-86
2023/04/07 07:15:54;;;;;;;8.10;7.30;;;;;;;4.71;100.00;92701.88;2057157;28;20034;-84
2023/04/07 07:16:55;;;;;;;7.40;6.60;;;;;;;4.85;100.00;92707.06;2073780;28;20025;-86
2023/04/07 07:17:57;;;;;;;7.38;5.70;;;;;;;4.89;100.00;92705.16;2057240;28;20019;-84
2023/04/07 07:18:59;;;;;;;7.15;5.43;;;;;;;5.03;100.00;92705.03;2056526;28;20503;-84
2023/04/07 07:20:00;;;;;;;6.13;5.13;;;;;;;5.05;100.00;92705.44;2056298;28;20031;-85
2023/04/07 07:21:02;;;;;;;5.47;4.60;;;;;;;4.93;100.00;92703.25;2048299;28;20031;-84
2023/04/07 07:22:04;;;;;;;8.52;6.15;;;;;;;5.00;100.00;92710.38;2048409;28;20059;-86
2023/04/07 07:23:05;;;;;;;8.63;6.35;;;;;;;5.02;100.00;92708.84;2047882;28;20130;-86
2023/04/07 07:24:07;;;;;;;8.25;4.90;;;;;;;5.19;100.00;92701.16;2047956;28;20041;-84
2023/04/07 07:25:08;;;;;;;5.05;4.35;;;;;;;5.18;100.00;92708.34;2041563;28;20248;-85
2023/04/07 07:26:09;;;;;;;5.25;4.55;;;;;;;5.25;100.00;92700.34;2057742;28;20036;-83
2023/04/07 07:27:10;;;;;;;7.18;5.72;;;;;;;5.30;100.00;92701.81;2052868;28;20031;-83
2023/04/07 07:28:11;;;;;;;8.55;6.10;;;;;;;5.44;100.00;92698.28;2051915;28;20059;-87
2023/04/07 07:29:15;;;;;;;6.55;4.88;;;;;;;5.43;100.00;92697.53;2056330;28;20026;-86
2023/04/07 07:30:16;;;;;;;8.63;5.30;;;;;;;5.50;100.00;92700.13;2056210;28;20475;-85
2023/04/07 07:31:17;;;;;;;10.52;6.13;;;;;;;5.60;100.00;92698.50;2048534;28;20412;-85
2023/04/07 07:32:19;;;;;;;11.20;6.57;;;;;;;5.56;100.00;92697.78;2048279;28;20863;-84
2023/04/07 07:33:21;;;;;;;8.35;5.38;;;;;;;5.61;100.00;92697.34;2054826;28;20027;-86
2023/04/07 07:34:22;;;;;;;8.23;5.25;;;;;;;5.76;100.00;92697.97;2053828;28;20027;-86
2023/04/07 07:35:24;;;;;;;5.80;5.15;;;;;;;5.87;100.00;92700.50;2057892;28;20037;-87
2023/04/07 07:36:25;;;;;;;10.77;5.60;;;;;;;5.97;100.00;92702.31;2048273;28;20027;-85
2023/04/07 07:37:28;;;;;;;6.72;5.03;;;;;;;5.95;100.00;92707.28;2058431;28;20034;-85
2023/04/07 07:38:29;;;;;;;7.68;5.35;;;;;;;6.06;100.00;92707.91;2071535;28;20021;-86
2023/04/07 07:39:30;;;;;;;7.60;4.82;;;;;;;6.11;100.00;92699.50;2050802;28;20558;-84
2023/04/07 07:40:32;;;;;;;5.43;4.68;;;;;;;6.22;100.00;92700.13;2056516;28;20062;-84
2023/04/07 07:41:34;;;;;;;6.70;5.50;;;;;;;6.31;100.00;92708.34;2051260;28;20097;-85
2023/04/07 07:42:38;;;;;;;5.50;4.70;;;;;;;6.44;100.00;92692.63;2043702;28;20215;-87
2023/04/07 07:43:39;;;;;;;7.40;5.32;;;;;;;6.38;100.00;92699.56;2044170;28;20020;-86
2023/04/07 07:44:42;;;;;;;7.85;4.40;;;;;;;6.56;100.00;92699.31;2056466;28;20038;-83
2023/04/07 07:45:43;;;;;;;5.90;4.50;;;;;;;6.68;100.00;92703.34;2049234;28;20447;-85